Time;durP1;ratioP1;P1;durP2;ratioP2;P2;SDS_P1;SDS_P2;PMS_P1;PMS_P2;Temp;Humidity;BMP_temperature;BMP_pressure;BME280_temperature;BME280_humidity;BME280_pressure;Samples;Min_cycle;Max_cycle;Signal;HPM_P1;HPM_P2
2022/06/17 00:01:41;;;;;;;1.02;1.00;;;22.30;66.40;;;;;;5008287;28;20393;-25
2022/06/17 00:04:06;;;;;;;1.60;1.10;;;22.40;66.40;;;;;;5021505;28;20507;-25
2022/06/17 00:06:40;;;;;;;3.45;1.52;;;22.40;66.50;;;;;;4988142;28;20050;-25
2022/06/17 00:09:07;;;;;;;0.88;0.88;;;22.30;67.30;;;;;;5013349;28;20046;-24
2022/06/17 00:11:34;;;;;;;1.17;0.90;;;22.30;66.40;;;;;;5032994;28;20475;-24
2022/06/17 00:14:00;;;;;;;1.30;1.20;;;22.30;66.50;;;;;;5018920;28;20041;-24
2022/06/17 00:16:26;;;;;;;1.58;1.05;;;22.30;66.30;;;;;;5001522;28;20049;-23
2022/06/17 00:18:52;;;;;;;0.88;0.88;;;22.30;66.50;;;;;;5027802;28;20056;-25
2022/06/17 00:21:23;;;;;;;1.65;1.13;;;22.30;66.70;;;;;;5025878;28;20033;-25
2022/06/17 00:23:49;;;;;;;1.30;1.20;;;22.30;66.70;;;;;;5037297;28;20061;-26
2022/06/17 00:26:15;;;;;;;1.20;1.10;;;22.30;66.70;;;;;;5031813;28;20042;-25
2022/06/17 00:28:40;;;;;;;1.80;1.38;;;22.30;66.60;;;;;;5018607;28;20137;-25
2022/06/17 00:31:06;;;;;;;1.67;1.25;;;22.30;66.80;;;;;;4987877;28;20092;-25
2022/06/17 00:33:32;;;;;;;1.38;1.17;;;22.30;66.80;;;;;;5021083;28;20049;-25
2022/06/17 00:35:57;;;;;;;1.00;1.00;;;22.20;67.40;;;;;;5023563;28;20550;-24
2022/06/17 00:38:25;;;;;;;1.48;1.38;;;22.20;67.50;;;;;;5024325;28;20052;-25
2022/06/17 00:40:51;;;;;;;1.33;1.20;;;22.10;67.50;;;;;;5037675;28;20076;-25
2022/06/17 00:43:37;;;;;;;1.13;1.10;;;22.10;67.50;;;;;;5024505;28;20057;-24
2022/06/17 00:46:05;;;;;;;2.30;1.35;;;22.20;67.30;;;;;;5049583;28;20492;-24
2022/06/17 00:48:41;;;;;;;1.08;1.05;;;22.10;67.40;;;;;;5032435;28;20392;-23
2022/06/17 00:51:20;;;;;;;2.15;1.13;;;22.10;67.50;;;;;;5025741;28;20107;-23
2022/06/17 00:53:50;;;;;;;1.40;1.30;;;22.10;67.50;;;;;;5013892;28;20045;-24
2022/06/17 00:56:24;;;;;;;1.75;1.38;;;22.10;67.70;;;;;;5029696;28;20045;-25
2022/06/17 00:59:07;;;;;;;1.48;1.23;;;22.20;67.70;;;;;;5035465;28;20506;-24
2022/06/17 01:01:37;;;;;;;1.75;1.45;;;22.10;67.70;;;;;;5010512;28;20049;-24
2022/06/17 01:04:05;;;;;;;1.10;1.00;;;22.10;67.80;;;;;;5016448;28;20050;-26
2022/06/17 01:06:34;;;;;;;1.20;1.10;;;22.00;68.20;;;;;;5022214;28;20132;-24
2022/06/17 01:11:51;;;;;;;3.88;1.17;;;22.00;68.30;;;;;;5019826;28;20178;-24
2022/06/17 01:14:17;;;;;;;3.35;1.30;;;21.90;68.70;;;;;;5016291;28;20041;-24
2022/06/17 01:16:43;;;;;;;1.15;1.10;;;21.90;68.90;;;;;;5028089;28;20045;-23
2022/06/17 01:19:36;;;;;;;1.55;1.45;;;21.80;69.50;;;;;;5018809;28;20104;-26
2022/06/17 01:22:08;;;;;;;1.23;1.10;;;21.80;69.40;;;;;;5020948;28;20128;-24
2022/06/17 01:24:34;;;;;;;1.65;1.40;;;21.80;69.60;;;;;;5028910;28;20038;-24
2022/06/17 01:26:59;;;;;;;2.88;1.42;;;21.80;69.80;;;;;;5020183;28;20048;-24
2022/06/17 01:29:25;;;;;;;1.25;1.15;;;21.80;69.80;;;;;;5015997;28;20045;-24
2022/06/17 01:31:52;;;;;;;1.40;1.30;;;21.70;69.80;;;;;;5022938;28;20042;-24
2022/06/17 01:34:18;;;;;;;1.73;1.23;;;21.80;69.70;;;;;;4991254;28;20084;-23
2022/06/17 01:36:44;;;;;;;1.95;1.15;;;21.80;69.50;;;;;;5022274;28;20450;-24
2022/06/17 01:39:11;;;;;;;2.00;1.58;;;21.70;69.60;;;;;;5019379;28;21173;-23
2022/06/17 01:41:37;;;;;;;1.23;1.23;;;21.60;69.60;;;;;;5030246;28;20519;-24
2022/06/17 01:44:15;;;;;;;1.85;1.20;;;21.60;69.60;;;;;;5001769;28;20474;-25
2022/06/17 01:46:43;;;;;;;1.48;1.27;;;21.60;69.70;;;;;;5023999;28;20046;-23
2022/06/17 01:49:18;;;;;;;1.30;1.13;;;21.60;69.60;;;;;;5015438;28;20049;-24
2022/06/17 01:51:57;;;;;;;1.90;1.30;;;21.60;69.70;;;;;;5014726;28;20037;-24
2022/06/17 01:54:47;;;;;;;1.50;1.40;;;21.50;69.80;;;;;;4994611;28;20100;-24
2022/06/17 01:57:16;;;;;;;1.10;1.10;;;21.60;69.20;;;;;;5013681;28;20081;-24
2022/06/17 01:59:51;;;;;;;1.30;1.20;;;21.60;68.90;;;;;;5013644;28;20565;-24
2022/06/17 02:02:17;;;;;;;1.50;1.40;;;21.60;68.50;;;;;;5014674;28;20308;-25
2022/06/17 02:04:48;;;;;;;1.30;1.20;;;21.60;67.90;;;;;;5013654;28;20161;-25
2022/06/17 02:07:16;;;;;;;1.10;1.10;;;21.50;67.60;;;;;;4998178;28;20045;-24
2022/06/17 02:09:42;;;;;;;1.20;1.10;;;21.50;67.60;;;;;;5016478;28;20038;-24
2022/06/17 02:12:08;;;;;;;1.42;1.30;;;21.60;67.20;;;;;;5013656;28;20041;-26
2022/06/17 02:14:34;;;;;;;1.83;1.55;;;21.60;67.10;;;;;;4997192;28;20053;-23
2022/06/17 02:16:59;;;;;;;1.40;1.30;;;21.60;66.90;;;;;;5014241;28;20108;-24
2022/06/17 02:19:26;;;;;;;1.42;1.33;;;21.60;66.70;;;;;;4995926;28;20049;-25
2022/06/17 02:21:59;;;;;;;1.10;1.10;;;21.50;66.80;;;;;;5014665;28;20418;-24
2022/06/17 02:24:24;;;;;;;1.92;1.30;;;21.60;67.60;;;;;;4980239;28;20443;-24
2022/06/17 02:26:50;;;;;;;1.80;1.30;;;21.50;66.40;;;;;;5014391;28;20041;-24
2022/06/17 02:29:16;;;;;;;4.63;1.30;;;21.50;66.50;;;;;;5014217;28;20051;-23
2022/06/17 02:31:42;;;;;;;2.25;1.30;;;21.50;66.30;;;;;;5013812;28;20100;-25
2022/06/17 02:34:08;;;;;;;2.15;1.20;;;21.50;66.50;;;;;;5014580;28;20557;-24
2022/06/17 02:36:41;;;;;;;1.40;1.30;;;21.50;66.70;;;;;;5013603;28;20108;-24
2022/06/17 02:39:09;;;;;;;1.00;0.90;;;21.50;67.30;;;;;;5014954;28;20046;-26
2022/06/17 02:41:35;;;;;;;1.00;1.00;;;21.40;66.20;;;;;;4992687;28;20423;-23
2022/06/17 02:44:06;;;;;;;1.50;1.40;;;21.40;66.10;;;;;;4994107;28;20049;-24
2022/06/17 02:46:34;;;;;;;1.30;1.20;;;21.40;66.10;;;;;;5009073;28;20470;-24
2022/06/17 02:49:03;;;;;;;1.92;1.40;;;21.30;66.40;;;;;;5014030;28;20106;-24
2022/06/17 02:51:30;;;;;;;2.38;1.27;;;21.40;66.50;;;;;;5012703;28;20073;-23
2022/06/17 02:53:56;;;;;;;1.05;1.00;;;21.40;66.50;;;;;;5014900;28;20042;-24
2022/06/17 02:56:25;;;;;;;1.30;1.20;;;21.40;66.40;;;;;;5012172;28;20065;-24
2022/06/17 02:59:03;;;;;;;1.38;1.27;;;21.40;66.20;;;;;;5014952;28;20169;-24
2022/06/17 03:01:32;;;;;;;1.80;1.10;;;21.40;66.10;;;;;;5004787;28;20054;-24
2022/06/17 03:03:57;;;;;;;1.02;1.02;;;21.40;66.20;;;;;;4996770;28;20034;-24
2022/06/17 03:06:35;;;;;;;1.40;1.30;;;21.30;66.30;;;;;;5013960;28;20037;-25
2022/06/17 03:09:34;;;;;;;1.65;1.48;;;21.30;66.10;;;;;;5029619;28;20060;-25
2022/06/17 03:12:23;;;;;;;1.13;1.02;;;21.30;66.20;;;;;;5013653;28;20414;-23
2022/06/17 03:14:50;;;;;;;2.05;1.00;;;21.30;66.40;;;;;;5010366;28;20054;-23
2022/06/17 03:17:17;;;;;;;2.85;1.50;;;21.20;66.50;;;;;;5011785;28;20048;-24
2022/06/17 03:19:43;;;;;;;1.48;1.30;;;21.20;66.80;;;;;;5017537;28;20121;-24
2022/06/17 03:22:10;;;;;;;2.55;1.30;;;21.20;67.10;;;;;;4984503;28;20065;-24
2022/06/17 03:24:52;;;;;;;1.48;1.30;;;21.20;67.10;;;;;;5031435;28;20104;-23
2022/06/17 03:27:37;;;;;;;2.38;1.30;;;21.20;66.90;;;;;;5029624;28;20457;-24
2022/06/17 03:30:03;;;;;;;2.03;1.42;;;21.20;66.90;;;;;;5033380;28;20076;-24
2022/06/17 03:32:33;;;;;;;2.35;1.30;;;21.20;67.20;;;;;;5014259;28;20042;-24
2022/06/17 03:34:59;;;;;;;1.23;1.13;;;21.20;67.30;;;;;;5008747;28;20042;-24
2022/06/17 03:37:38;;;;;;;1.52;1.20;;;21.20;67.30;;;;;;5014595;28;20061;-25
2022/06/17 03:40:16;;;;;;;4.00;1.55;;;21.20;67.40;;;;;;5028842;28;20059;-24
2022/06/17 03:42:52;;;;;;;1.75;1.05;;;21.10;67.60;;;;;;5030141;28;20172;-23
2022/06/17 03:45:21;;;;;;;1.40;1.30;;;21.10;67.60;;;;;;5014641;28;20046;-24
2022/06/17 03:48:12;;;;;;;1.42;1.33;;;21.10;67.60;;;;;;5001646;28;20041;-24
2022/06/17 03:50:41;;;;;;;1.77;1.65;;;21.10;67.70;;;;;;5014223;28;20042;-24
2022/06/17 03:53:29;;;;;;;2.13;1.48;;;21.10;67.80;;;;;;5014709;28;20136;-24
2022/06/17 03:56:07;;;;;;;1.58;1.42;;;21.10;67.90;;;;;;5009077;28;20045;-23
2022/06/17 03:58:33;;;;;;;1.80;1.65;;;21.00;67.70;;;;;;5036615;28;20061;-23
2022/06/17 04:01:13;;;;;;;1.58;1.48;;;21.00;67.80;;;;;;5013410;28;20049;-24
2022/06/17 04:03:39;;;;;;;1.35;1.25;;;21.00;67.80;;;;;;5028066;28;20049;-26
2022/06/17 04:06:12;;;;;;;2.75;1.35;;;21.00;68.00;;;;;;5024830;28;20042;-24
2022/06/17 04:09:17;;;;;;;1.40;1.30;;;21.00;67.50;;;;;;5024150;28;20441;-24
2022/06/17 04:11:45;;;;;;;1.67;1.42;;;21.00;67.50;;;;;;5009381;28;20057;-24
2022/06/17 04:14:19;;;;;;;1.17;1.08;;;21.00;67.50;;;;;;5010559;28;20783;-24
2022/06/17 04:17:08;;;;;;;1.42;1.20;;;21.00;67.20;;;;;;5021838;28;20048;-24
2022/06/17 04:19:34;;;;;;;1.20;1.10;;;21.00;67.10;;;;;;5028413;28;20043;-24
2022/06/17 04:22:06;;;;;;;1.65;1.30;;;21.00;67.50;;;;;;5028179;28;20049;-25
2022/06/17 04:24:31;;;;;;;1.88;1.30;;;20.90;67.30;;;;;;5019439;28;20068;-25
2022/06/17 04:27:02;;;;;;;1.60;1.13;;;20.90;67.30;;;;;;5028926;28;20103;-23
2022/06/17 04:29:39;;;;;;;1.40;1.30;;;21.20;66.70;;;;;;5023576;28;20038;-24
2022/06/17 04:32:19;;;;;;;1.60;1.50;;;21.40;65.80;;;;;;5012837;28;20045;-25
2022/06/17 04:34:45;;;;;;;1.95;1.30;;;21.30;65.80;;;;;;5007046;28;20049;-23
2022/06/17 04:37:19;;;;;;;1.88;1.40;;;21.20;66.30;;;;;;4659351;28;9999878;-24
2022/06/17 04:39:57;;;;;;;2.13;1.50;;;21.20;66.50;;;;;;5024409;28;20534;-24
2022/06/17 04:42:36;;;;;;;1.58;1.48;;;21.20;66.40;;;;;;5026595;28;20046;-24
2022/06/17 04:45:02;;;;;;;1.30;1.20;;;21.30;66.50;;;;;;5026456;28;20538;-25
2022/06/17 04:47:32;;;;;;;2.47;1.63;;;21.20;66.60;;;;;;5006777;28;20096;-24
2022/06/17 04:50:03;;;;;;;1.85;1.50;;;21.20;66.90;;;;;;5012560;28;20122;-24
2022/06/17 04:52:34;;;;;;;1.10;1.10;;;21.20;67.00;;;;;;5028630;28;20045;-24
2022/06/17 04:55:01;;;;;;;1.65;1.40;;;21.00;67.70;;;;;;5022712;28;20188;-24
2022/06/17 04:57:27;;;;;;;1.77;1.65;;;21.10;67.30;;;;;;5025184;28;20490;-24
2022/06/17 04:59:56;;;;;;;2.67;1.40;;;21.10;67.70;;;;;;5023196;28;20066;-24
2022/06/17 05:02:22;;;;;;;1.90;1.70;;;21.10;67.70;;;;;;5007491;28;20208;-24
2022/06/17 05:04:50;;;;;;;1.67;1.58;;;21.00;68.20;;;;;;5022394;28;20048;-24
2022/06/17 05:07:16;;;;;;;4.38;1.58;;;21.00;68.20;;;;;;5024629;28;20055;-24
2022/06/17 05:09:46;;;;;;;1.58;1.48;;;20.90;68.60;;;;;;5020927;28;20057;-25
2022/06/17 05:12:16;;;;;;;1.60;1.50;;;21.00;68.30;;;;;;5005941;28;20053;-24
2022/06/17 05:14:53;;;;;;;3.38;1.42;;;20.90;68.80;;;;;;5026002;28;20049;-24
2022/06/17 05:17:19;;;;;;;3.78;1.55;;;21.00;68.60;;;;;;5025395;28;20068;-23
2022/06/17 05:19:45;;;;;;;2.35;1.50;;;21.00;68.30;;;;;;5024368;28;20039;-24
2022/06/17 05:22:16;;;;;;;2.53;1.60;;;21.00;68.20;;;;;;5004607;28;20578;-23
2022/06/17 05:24:42;;;;;;;4.15;1.70;;;20.90;68.20;;;;;;5021323;28;20045;-24
2022/06/17 05:27:07;;;;;;;1.33;1.23;;;20.90;68.50;;;;;;4989653;28;20045;-24
2022/06/17 05:29:33;;;;;;;3.83;1.80;;;20.90;68.70;;;;;;5020084;28;20104;-24
2022/06/17 05:31:59;;;;;;;1.73;1.40;;;20.90;69.20;;;;;;5004352;28;20129;-25
2022/06/17 05:34:24;;;;;;;4.00;1.55;;;20.90;69.40;;;;;;5003809;28;20093;-24
2022/06/17 05:36:52;;;;;;;2.90;1.30;;;20.90;69.60;;;;;;4992437;28;20042;-26
2022/06/17 05:39:17;;;;;;;1.92;1.63;;;20.90;69.90;;;;;;5000972;28;20042;-25
2022/06/17 05:41:43;;;;;;;4.53;1.60;;;20.80;70.00;;;;;;5022122;28;20076;-25
2022/06/17 05:44:09;;;;;;;3.75;1.42;;;20.90;70.20;;;;;;5021294;28;20045;-25
2022/06/17 05:46:34;;;;;;;3.00;1.45;;;21.00;69.80;;;;;;5020055;28;20685;-24
2022/06/17 05:49:00;;;;;;;2.20;1.70;;;21.00;69.50;;;;;;5018279;28;20947;-24
2022/06/17 05:51:27;;;;;;;2.63;1.55;;;21.10;69.80;;;;;;4668094;28;10000615;-25
2022/06/17 05:53:53;;;;;;;3.03;1.70;;;21.00;69.90;;;;;;5006424;28;20041;-24
2022/06/17 05:56:18;;;;;;;3.28;1.30;;;21.00;69.80;;;;;;5027185;28;20069;-23
2022/06/17 05:58:44;;;;;;;2.08;1.60;;;21.00;69.50;;;;;;5015486;28;20407;-25
2022/06/17 06:01:09;;;;;;;3.88;1.40;;;21.00;69.60;;;;;;5023140;28;20049;-23
2022/06/17 06:03:35;;;;;;;2.22;1.77;;;21.00;69.40;;;;;;5004709;28;20042;-24
2022/06/17 06:06:01;;;;;;;5.10;2.03;;;21.10;68.40;;;;;;5021769;28;20129;-23
2022/06/17 06:08:26;;;;;;;1.60;1.40;;;21.10;68.10;;;;;;5024714;28;20049;-23
2022/06/17 06:10:52;;;;;;;1.55;1.42;;;21.10;67.90;;;;;;5008085;28;20132;-24
2022/06/17 06:13:20;;;;;;;3.17;1.75;;;21.20;67.30;;;;;;5023465;28;20617;-23
2022/06/17 06:15:47;;;;;;;3.17;1.40;;;21.10;67.50;;;;;;5009125;28;20060;-24
2022/06/17 06:18:16;;;;;;;3.13;1.50;;;21.20;67.60;;;;;;5025090;28;20046;-24
2022/06/17 06:20:41;;;;;;;1.42;1.33;;;21.30;67.20;;;;;;5021820;28;20037;-23
2022/06/17 06:23:08;;;;;;;3.15;2.00;;;21.40;67.00;;;;;;5010630;28;20104;-23
2022/06/17 06:25:33;;;;;;;4.85;1.95;;;21.40;66.90;;;;;;5024564;28;20034;-24
2022/06/17 06:27:59;;;;;;;1.98;1.65;;;21.40;66.50;;;;;;5020405;28;20052;-24
2022/06/17 06:30:29;;;;;;;2.10;1.55;;;21.40;66.70;;;;;;5022447;28;20071;-24
2022/06/17 06:32:59;;;;;;;5.50;1.70;;;21.40;66.50;;;;;;4991130;28;20451;-24
2022/06/17 06:35:29;;;;;;;2.97;1.50;;;21.60;66.00;;;;;;5010052;28;20103;-25
2022/06/17 06:37:55;;;;;;;2.85;1.50;;;21.60;65.80;;;;;;5007162;28;20053;-24
2022/06/17 06:40:20;;;;;;;2.20;1.60;;;21.50;66.20;;;;;;5001526;28;20530;-25
2022/06/17 06:42:47;;;;;;;2.28;1.60;;;21.40;66.40;;;;;;5023705;28;20119;-24
2022/06/17 06:45:18;;;;;;;2.88;1.90;;;21.40;66.50;;;;;;5014719;28;20041;-24
2022/06/17 06:47:44;;;;;;;5.28;2.13;;;21.40;67.00;;;;;;4997243;28;20045;-23
2022/06/17 06:50:13;;;;;;;3.67;1.90;;;21.50;66.80;;;;;;5024973;28;20095;-24
2022/06/17 06:52:39;;;;;;;3.75;1.75;;;21.50;66.60;;;;;;5014196;28;20048;-24
2022/06/17 06:55:05;;;;;;;2.58;1.63;;;21.60;66.80;;;;;;5008340;28;20042;-24
2022/06/17 06:57:30;;;;;;;2.22;1.48;;;21.60;66.80;;;;;;4977887;28;20125;-26
2022/06/17 07:00:00;;;;;;;4.38;2.08;;;21.60;66.60;;;;;;5024209;28;20119;-24
2022/06/17 07:02:26;;;;;;;2.47;1.60;;;21.70;66.90;;;;;;5003791;28;20157;-24
2022/06/17 07:04:51;;;;;;;3.58;1.60;;;21.70;66.90;;;;;;5023891;28;20065;-24
2022/06/17 07:07:17;;;;;;;1.60;1.50;;;21.70;66.70;;;;;;5021314;28;20510;-23
2022/06/17 07:09:42;;;;;;;3.08;1.60;;;21.70;66.60;;;;;;5019893;28;20168;-24
2022/06/17 07:12:08;;;;;;;2.13;1.80;;;21.70;66.60;;;;;;5024498;28;20049;-24
2022/06/17 07:14:34;;;;;;;1.83;1.60;;;21.70;66.70;;;;;;5010752;28;20471;-23
2022/06/17 07:17:00;;;;;;;5.00;1.90;;;21.80;66.30;;;;;;5025976;28;20479;-23
2022/06/17 07:19:25;;;;;;;1.40;1.30;;;21.80;66.30;;;;;;5020796;28;20053;-24
2022/06/17 07:21:51;;;;;;;1.35;1.25;;;21.80;66.20;;;;;;5020806;28;20045;-24
2022/06/17 07:24:17;;;;;;;1.73;1.38;;;21.90;66.10;;;;;;5026539;28;20125;-25
2022/06/17 07:26:42;;;;;;;1.70;1.50;;;21.90;66.20;;;;;;5003634;28;20052;-24
2022/06/17 07:29:08;;;;;;;2.15;1.58;;;22.00;66.00;;;;;;5006183;28;20049;-25
2022/06/17 07:31:34;;;;;;;1.45;1.35;;;22.00;65.90;;;;;;5023156;28;20053;-23
2022/06/17 07:33:59;;;;;;;2.55;1.73;;;22.10;65.60;;;;;;5025807;28;20037;-25
2022/06/17 07:41:58;;;;;;;1.65;1.40;;;22.20;65.40;;;;;;5031605;28;20052;-24
2022/06/17 07:44:24;;;;;;;1.40;1.30;;;22.20;65.40;;;;;;5032506;28;20042;-24
2022/06/17 07:46:49;;;;;;;2.28;1.30;;;22.30;65.00;;;;;;5024704;28;20065;-25
2022/06/17 07:49:15;;;;;;;1.88;1.77;;;22.30;65.10;;;;;;4998297;28;20030;-26
2022/06/17 07:51:41;;;;;;;1.17;1.17;;;22.30;65.00;;;;;;5046611;28;20045;-25
2022/06/17 07:54:06;;;;;;;1.60;1.30;;;22.30;65.40;;;;;;5024138;28;20115;-25
2022/06/17 07:56:32;;;;;;;1.50;1.40;;;22.40;65.00;;;;;;5025386;28;20050;-25
2022/06/17 07:58:58;;;;;;;1.70;1.42;;;22.40;64.90;;;;;;5030065;28;20120;-25
2022/06/17 08:01:24;;;;;;;2.75;1.40;;;22.40;64.80;;;;;;5019870;28;20108;-24
2022/06/17 08:03:49;;;;;;;2.55;1.60;;;22.50;65.10;;;;;;5024008;28;20058;-25
2022/06/17 08:06:16;;;;;;;1.35;1.25;;;22.50;64.50;;;;;;5009749;28;20045;-23
2022/06/17 08:08:42;;;;;;;1.40;1.30;;;22.50;64.80;;;;;;5011165;28;20453;-25
2022/06/17 08:11:08;;;;;;;1.52;1.42;;;22.50;64.60;;;;;;5026407;28;20045;-25
2022/06/17 08:13:34;;;;;;;2.55;1.23;;;22.50;64.70;;;;;;5016733;28;20041;-26
2022/06/17 08:16:02;;;;;;;1.30;1.20;;;22.50;64.60;;;;;;5013862;28;20502;-26
2022/06/17 08:18:28;;;;;;;1.55;1.38;;;22.60;64.60;;;;;;5029779;28;20065;-25
2022/06/17 08:20:53;;;;;;;1.80;1.70;;;22.60;64.70;;;;;;5032644;28;20056;-26
2022/06/17 08:23:20;;;;;;;2.10;1.50;;;22.60;64.80;;;;;;5019634;28;20561;-23
2022/06/17 08:25:46;;;;;;;1.48;1.38;;;22.60;64.70;;;;;;5030775;28;20104;-24
2022/06/17 08:28:12;;;;;;;1.33;1.23;;;22.60;64.50;;;;;;5029467;28;20034;-26
2022/06/17 08:30:43;;;;;;;1.10;1.10;;;22.60;64.50;;;;;;5008912;28;20120;-25
2022/06/17 08:33:09;;;;;;;1.75;1.65;;;22.60;64.50;;;;;;5035977;28;20057;-25
2022/06/17 08:35:36;;;;;;;1.65;1.25;;;22.70;64.50;;;;;;5034725;28;20049;-26
2022/06/17 08:38:16;;;;;;;1.70;1.60;;;22.80;64.70;;;;;;5012159;28;20057;-25
2022/06/17 08:40:48;;;;;;;1.10;1.10;;;22.80;64.30;;;;;;5012193;28;20045;-25
2022/06/17 08:43:32;;;;;;;1.30;1.20;;;22.80;63.90;;;;;;5020163;28;20050;-25
2022/06/17 08:46:07;;;;;;;1.50;1.40;;;22.80;64.40;;;;;;4999692;28;20053;-25
2022/06/17 08:49:08;;;;;;;1.33;1.27;;;22.80;64.30;;;;;;5008268;28;20049;-26
2022/06/17 08:51:38;;;;;;;2.38;1.63;;;22.80;64.40;;;;;;5007519;28;20050;-25
2022/06/17 08:54:22;;;;;;;1.90;1.40;;;22.80;64.40;;;;;;5007105;28;20469;-25
2022/06/17 08:56:53;;;;;;;1.30;1.20;;;22.90;64.30;;;;;;5012535;28;20053;-25
2022/06/17 08:59:30;;;;;;;1.55;1.42;;;22.90;64.30;;;;;;5009514;28;20083;-25
2022/06/17 09:02:19;;;;;;;1.60;1.50;;;22.90;64.30;;;;;;5004728;28;20061;-24
2022/06/17 09:04:58;;;;;;;1.20;1.10;;;22.90;64.20;;;;;;5006846;28;20052;-25
2022/06/17 09:07:30;;;;;;;1.63;1.52;;;22.90;65.30;;;;;;5010339;28;20100;-26
2022/06/17 09:10:36;;;;;;;1.67;1.40;;;22.90;64.40;;;;;;5009582;28;20052;-25
2022/06/17 09:13:21;;;;;;;1.70;1.60;;;23.00;64.50;;;;;;5005680;28;20068;-25
2022/06/17 09:15:49;;;;;;;1.58;1.27;;;23.00;64.40;;;;;;5005848;28;20077;-26
2022/06/17 09:18:34;;;;;;;1.33;1.23;;;23.00;64.00;;;;;;5004229;28;20099;-25
2022/06/17 09:21:28;;;;;;;1.70;1.50;;;23.00;64.00;;;;;;4994917;28;20053;-25
2022/06/17 09:23:54;;;;;;;1.55;1.45;;;23.10;64.00;;;;;;5003404;28;20185;-25
2022/06/17 09:26:39;;;;;;;2.00;1.75;;;23.10;64.00;;;;;;5002652;28;20149;-25
2022/06/17 09:29:09;;;;;;;1.88;1.77;;;23.20;64.10;;;;;;5001569;28;20108;-26
2022/06/17 09:31:37;;;;;;;2.10;1.90;;;23.20;64.20;;;;;;5002810;28;20589;-25
2022/06/17 09:34:28;;;;;;;1.65;1.55;;;23.20;64.20;;;;;;4985806;28;20057;-25
2022/06/17 09:37:22;;;;;;;2.00;1.27;;;23.20;64.20;;;;;;5002994;28;20046;-25
2022/06/17 09:40:16;;;;;;;1.52;1.42;;;23.20;64.20;;;;;;4988090;28;20054;-25
2022/06/17 09:42:48;;;;;;;1.65;1.50;;;23.30;64.40;;;;;;4989460;28;20104;-25
2022/06/17 09:45:43;;;;;;;1.80;1.70;;;23.30;64.20;;;;;;5008094;28;20560;-25
2022/06/17 09:48:14;;;;;;;1.75;1.65;;;23.30;64.10;;;;;;4996600;28;20786;-25
2022/06/17 09:50:50;;;;;;;1.60;1.50;;;23.30;64.20;;;;;;5006675;28;20052;-26
2022/06/17 09:53:30;;;;;;;1.95;1.77;;;23.40;64.10;;;;;;4983283;28;20046;-26
2022/06/17 09:56:10;;;;;;;1.60;1.50;;;23.40;64.00;;;;;;4986881;28;20088;-25
2022/06/17 09:58:38;;;;;;;1.73;1.63;;;23.50;63.90;;;;;;5002651;28;20058;-25
2022/06/17 10:01:04;;;;;;;1.83;1.73;;;23.40;64.00;;;;;;5003831;28;20439;-25
2022/06/17 10:03:31;;;;;;;1.45;1.38;;;23.50;64.10;;;;;;5002122;28;20107;-25
2022/06/17 10:06:19;;;;;;;1.52;1.42;;;23.50;64.30;;;;;;5002920;28;20140;-25
2022/06/17 10:09:10;;;;;;;1.67;1.58;;;23.60;64.10;;;;;;5003595;28;20078;-25
2022/06/17 10:11:50;;;;;;;2.20;2.00;;;23.70;64.30;;;;;;5003697;28;20109;-25
2022/06/17 10:14:39;;;;;;;1.90;1.65;;;23.70;64.00;;;;;;5004958;28;20046;-25
2022/06/17 10:20:37;;;;;;;1.55;1.40;;;23.70;64.20;;;;;;5001000;28;20077;-25
2022/06/17 10:23:24;;;;;;;3.47;1.50;;;23.70;64.20;;;;;;5003776;28;20060;-25
2022/06/17 10:25:58;;;;;;;2.33;1.55;;;23.70;64.20;;;;;;5001515;28;20060;-26
2022/06/17 10:28:31;;;;;;;2.15;1.52;;;23.80;64.60;;;;;;5002943;28;20103;-25
2022/06/17 10:31:22;;;;;;;1.90;1.80;;;23.70;64.40;;;;;;4997332;28;20061;-26
2022/06/17 10:33:47;;;;;;;1.85;1.75;;;23.70;64.60;;;;;;4990450;28;20062;-25
2022/06/17 10:36:13;;;;;;;1.52;1.42;;;23.60;64.60;;;;;;4998314;28;20851;-24
2022/06/17 10:38:43;;;;;;;1.70;1.60;;;23.70;64.70;;;;;;4993744;28;20370;-26
2022/06/17 10:41:10;;;;;;;1.75;1.65;;;23.70;64.60;;;;;;4977022;28;20661;-24
2022/06/17 10:43:42;;;;;;;1.98;1.30;;;23.70;64.60;;;;;;5001728;28;20470;-24
2022/06/17 10:46:29;;;;;;;2.33;1.35;;;23.70;64.40;;;;;;4995097;28;20058;-25
2022/06/17 10:49:16;;;;;;;1.73;1.63;;;23.70;64.50;;;;;;5008251;28;20136;-25
2022/06/17 10:51:42;;;;;;;1.52;1.42;;;23.80;64.20;;;;;;5015182;28;20436;-25
2022/06/17 10:54:28;;;;;;;2.17;1.60;;;23.80;64.40;;;;;;4665687;28;10000590;-25
2022/06/17 10:57:10;;;;;;;1.70;1.60;;;23.80;64.00;;;;;;5010275;28;20048;-25
2022/06/17 10:59:39;;;;;;;1.52;1.40;;;23.80;64.10;;;;;;5008704;28;20037;-25
2022/06/17 11:02:05;;;;;;;2.78;1.70;;;23.80;64.40;;;;;;5009065;28;20127;-25
2022/06/17 11:04:34;;;;;;;1.40;1.30;;;23.80;64.50;;;;;;4991430;28;20077;-25
2022/06/17 11:07:00;;;;;;;2.00;1.70;;;23.80;64.40;;;;;;5001391;28;20046;-25
2022/06/17 11:09:47;;;;;;;1.67;1.58;;;23.80;64.30;;;;;;5003403;28;20496;-25
2022/06/17 11:12:21;;;;;;;2.53;1.48;;;23.90;64.20;;;;;;5010214;28;21106;-25
2022/06/17 11:14:46;;;;;;;1.52;1.42;;;23.90;64.30;;;;;;5018973;28;20294;-25
2022/06/17 11:17:35;;;;;;;7.07;1.73;;;23.80;64.10;;;;;;5020945;28;20353;-25
2022/06/17 11:20:19;;;;;;;2.90;1.65;;;23.90;64.20;;;;;;5018556;28;20053;-24
2022/06/17 11:22:59;;;;;;;1.73;1.63;;;23.90;64.00;;;;;;5027653;28;20068;-26
2022/06/17 11:25:30;;;;;;;2.45;1.80;;;23.90;64.10;;;;;;5016367;28;20049;-24
2022/06/17 11:28:18;;;;;;;4.65;1.48;;;23.90;64.30;;;;;;5011543;28;20049;-25
2022/06/17 11:31:02;;;;;;;1.80;1.70;;;23.90;64.00;;;;;;5017802;28;20042;-24
2022/06/17 11:33:35;;;;;;;1.50;1.40;;;23.80;64.00;;;;;;5025045;28;20057;-27
2022/06/17 11:36:16;;;;;;;2.30;1.63;;;23.80;64.00;;;;;;5019263;28;20315;-27
2022/06/17 11:38:42;;;;;;;1.70;1.40;;;23.90;64.10;;;;;;5019009;28;20126;-26
2022/06/17 11:41:08;;;;;;;1.33;1.23;;;23.90;64.10;;;;;;5015170;28;20053;-26
2022/06/17 11:43:43;;;;;;;1.42;1.33;;;23.90;64.90;;;;;;4998306;28;20049;-25
2022/06/17 11:46:12;;;;;;;4.85;1.95;;;23.90;64.20;;;;;;5021204;28;20467;-25
2022/06/17 11:48:42;;;;;;;1.65;1.65;;;23.90;64.00;;;;;;5024057;28;20111;-27
2022/06/17 11:51:14;;;;;;;1.70;1.60;;;23.90;64.10;;;;;;4997895;28;20756;-26
2022/06/17 11:53:49;;;;;;;1.80;1.70;;;23.90;65.00;;;;;;5005740;28;20049;-25
2022/06/17 11:56:35;;;;;;;3.20;1.60;;;23.90;64.10;;;;;;5021985;28;20310;-27
2022/06/17 11:59:22;;;;;;;1.55;1.45;;;23.90;64.10;;;;;;5005533;28;20065;-27
2022/06/17 12:01:54;;;;;;;1.77;1.52;;;23.90;64.00;;;;;;5021190;28;20112;-25
2022/06/17 12:04:35;;;;;;;1.65;1.55;;;23.90;63.90;;;;;;5016444;28;20219;-25
2022/06/17 12:07:00;;;;;;;1.50;1.40;;;23.90;63.90;;;;;;5018163;28;20129;-25
2022/06/17 12:09:26;;;;;;;1.30;1.30;;;23.90;64.10;;;;;;5002477;28;20144;-25
2022/06/17 12:11:58;;;;;;;2.08;1.50;;;23.90;64.00;;;;;;5018682;28;20397;-26
2022/06/17 12:14:44;;;;;;;1.73;1.63;;;23.90;63.80;;;;;;5004466;28;20045;-25
2022/06/17 12:17:14;;;;;;;1.30;1.30;;;23.90;64.00;;;;;;5025421;28;20076;-25
2022/06/17 12:19:39;;;;;;;1.60;1.52;;;23.90;64.00;;;;;;4992795;28;20536;-25
2022/06/17 12:22:33;;;;;;;1.60;1.50;;;23.90;63.80;;;;;;5018657;28;20541;-25
2022/06/17 12:25:07;;;;;;;1.30;1.20;;;23.90;63.80;;;;;;5030267;28;20050;-25
2022/06/17 12:27:40;;;;;;;1.42;1.33;;;23.90;63.80;;;;;;5022710;28;20042;-26
2022/06/17 12:30:32;;;;;;;1.20;1.20;;;23.90;64.60;;;;;;5029107;28;20045;-25
2022/06/17 12:33:12;;;;;;;1.20;1.20;;;23.90;63.80;;;;;;5007124;28;20111;-25
2022/06/17 12:35:45;;;;;;;1.60;1.52;;;24.00;63.90;;;;;;5031896;28;20076;-26
2022/06/17 12:38:28;;;;;;;1.45;1.35;;;23.90;63.90;;;;;;5005744;28;20060;-26
2022/06/17 12:41:00;;;;;;;1.52;1.45;;;24.00;64.00;;;;;;5031861;28;20054;-27
2022/06/17 12:43:35;;;;;;;1.50;1.50;;;24.00;63.80;;;;;;5023930;28;20406;-26
2022/06/17 12:46:16;;;;;;;2.38;1.50;;;24.00;63.60;;;;;;5009992;28;20080;-25
2022/06/17 12:48:57;;;;;;;2.05;1.48;;;24.00;63.40;;;;;;5014364;28;20065;-25
2022/06/17 12:54:47;;;;;;;1.17;1.17;;;24.00;63.20;;;;;;5025289;28;20100;-26
2022/06/17 12:57:27;;;;;;;1.35;1.20;;;24.00;63.20;;;;;;5005996;28;20045;-26
2022/06/17 13:00:04;;;;;;;1.25;1.20;;;24.00;63.20;;;;;;5010099;28;20046;-26
2022/06/17 13:02:51;;;;;;;1.17;1.17;;;24.00;63.20;;;;;;5023791;28;20052;-26
2022/06/17 13:05:41;;;;;;;1.55;1.00;;;24.00;63.20;;;;;;5024226;28;20041;-25
2022/06/17 13:08:42;;;;;;;1.20;1.20;;;24.00;63.90;;;;;;5027228;28;21251;-25
2022/06/17 13:11:22;;;;;;;1.40;1.33;;;24.00;63.60;;;;;;5031121;28;20081;-25
2022/06/17 13:14:21;;;;;;;1.38;1.27;;;24.00;63.40;;;;;;5009039;28;20045;-26
2022/06/17 13:16:58;;;;;;;1.17;1.17;;;24.00;63.40;;;;;;5024782;28;20045;-25
2022/06/17 13:19:42;;;;;;;1.23;1.23;;;24.00;63.50;;;;;;5024863;28;20092;-26
2022/06/17 13:22:51;;;;;;;1.35;1.25;;;24.00;63.40;;;;;;5024629;28;20442;-26
2022/06/17 13:25:20;;;;;;;1.10;1.10;;;24.00;63.50;;;;;;5015794;28;21153;-25
2022/06/17 13:27:48;;;;;;;1.10;1.10;;;24.10;63.60;;;;;;5023756;28;20038;-26